sensor_id;sensor_type;location;lat;lon;timestamp;pressure;altitude;pressure_sealevel;temperature;humidity
66381;BME280;53177;52.648;1.214;2022-08-11T00:01:18;101953.09;;;16.89;100.00
66381;BME280;53177;52.648;1.214;2022-08-11T00:03:50;101955.00;;;16.88;100.00
66381;BME280;53177;52.648;1.214;2022-08-11T00:06:31;101959.25;;;16.79;100.00
66381;BME280;53177;52.648;1.214;2022-08-11T00:08:58;101953.53;;;16.76;100.00
66381;BME280;53177;52.648;1.214;2022-08-11T00:11:51;101958.00;;;16.65;100.00
66381;BME280;53177;52.648;1.214;2022-08-11T00:14:20;101958.66;;;16.72;100.00
66381;BME280;53177;52.648;1.214;2022-08-11T00:19:29;101951.19;;;16.89;100.00
66381;BME280;53177;52.648;1.214;2022-08-11T00:21:57;101955.22;;;16.87;100.00
66381;BME280;53177;52.648;1.214;2022-08-11T00:24:23;101953.63;;;16.91;100.00
66381;BME280;53177;52.648;1.214;2022-08-11T00:26:51;101952.06;;;16.68;100.00
66381;BME280;53177;52.648;1.214;2022-08-11T00:29:17;101953.94;;;16.62;100.00
66381;BME280;53177;52.648;1.214;2022-08-11T00:31:54;101947.41;;;16.63;100.00
66381;BME280;53177;52.648;1.214;2022-08-11T00:34:27;101953.41;;;16.65;100.00
66381;BME280;53177;52.648;1.214;2022-08-11T00:37:01;101945.53;;;16.64;100.00
66381;BME280;53177;52.648;1.214;2022-08-11T00:39:30;101952.56;;;16.65;100.00
66381;BME280;53177;52.648;1.214;2022-08-11T00:53:11;101929.81;;;16.66;100.00
66381;BME280;53177;52.648;1.214;2022-08-11T01:01:56;101920.56;;;16.62;100.00
66381;BME280;53177;52.648;1.214;2022-08-11T01:21:55;101913.00;;;16.69;100.00
66381;BME280;53177;52.648;1.214;2022-08-11T01:45:31;101895.84;;;16.26;100.00
66381;BME280;53177;52.648;1.214;2022-08-11T01:48:32;101896.03;;;16.20;100.00
66381;BME280;53177;52.648;1.214;2022-08-11T01:54:05;101884.66;;;16.17;100.00
66381;BME280;53177;52.648;1.214;2022-08-11T01:56:45;101885.50;;;16.23;100.00
66381;BME280;53177;52.648;1.214;2022-08-11T01:59:28;101886.81;;;16.21;100.00
66381;BME280;53177;52.648;1.214;2022-08-11T02:04:55;101889.41;;;16.05;100.00
66381;BME280;53177;52.648;1.214;2022-08-11T02:07:33;101885.00;;;15.99;100.00
66381;BME280;53177;52.648;1.214;2022-08-11T02:14:01;101880.88;;;15.91;100.00
66381;BME280;53177;52.648;1.214;2022-08-11T02:18:49;101880.81;;;15.86;100.00
66381;BME280;53177;52.648;1.214;2022-08-11T02:21:51;101876.94;;;15.77;100.00
66381;BME280;53177;52.648;1.214;2022-08-11T02:24:53;101872.59;;;15.76;100.00
66381;BME280;53177;52.648;1.214;2022-08-11T02:27:24;101878.06;;;15.81;100.00
66381;BME280;53177;52.648;1.214;2022-08-11T02:30:03;101870.97;;;15.80;100.00
66381;BME280;53177;52.648;1.214;2022-08-11T02:33:13;101870.28;;;15.90;100.00
66381;BME280;53177;52.648;1.214;2022-08-11T02:36:15;101865.16;;;15.93;100.00
66381;BME280;53177;52.648;1.214;2022-08-11T02:38:53;101863.75;;;15.86;100.00
66381;BME280;53177;52.648;1.214;2022-08-11T02:41:35;101862.31;;;15.78;100.00
66381;BME280;53177;52.648;1.214;2022-08-11T02:44:47;101862.84;;;15.80;100.00
66381;BME280;53177;52.648;1.214;2022-08-11T02:47:38;101858.28;;;15.81;100.00
66381;BME280;53177;52.648;1.214;2022-08-11T02:50:18;101855.25;;;15.77;100.00
66381;BME280;53177;52.648;1.214;2022-08-11T02:53:12;101856.88;;;15.78;100.00
66381;BME280;53177;52.648;1.214;2022-08-11T02:56:05;101847.03;;;15.67;100.00
66381;BME280;53177;52.648;1.214;2022-08-11T03:01:59;101837.50;;;15.64;100.00
66381;BME280;53177;52.648;1.214;2022-08-11T03:07:26;101838.72;;;15.57;100.00
66381;BME280;53177;52.648;1.214;2022-08-11T03:10:07;101853.84;;;15.53;100.00
66381;BME280;53177;52.648;1.214;2022-08-11T03:18:59;101846.69;;;15.63;100.00
66381;BME280;53177;52.648;1.214;2022-08-11T03:22:20;101841.75;;;15.60;100.00
66381;BME280;53177;52.648;1.214;2022-08-11T03:24:53;101851.16;;;15.53;100.00
66381;BME280;53177;52.648;1.214;2022-08-11T03:32:40;101854.66;;;15.53;100.00
66381;BME280;53177;52.648;1.214;2022-08-11T03:35:39;101853.56;;;15.49;100.00
66381;BME280;53177;52.648;1.214;2022-08-11T03:38:11;101856.72;;;15.41;100.00
66381;BME280;53177;52.648;1.214;2022-08-11T03:40:57;101862.56;;;15.33;100.00
66381;BME280;53177;52.648;1.214;2022-08-11T03:49:35;101857.38;;;15.53;100.00
66381;BME280;53177;52.648;1.214;2022-08-11T04:06:30;101854.38;;;15.50;100.00
66381;BME280;53177;52.648;1.214;2022-08-11T04:11:50;101864.63;;;15.48;100.00
66381;BME280;53177;52.648;1.214;2022-08-11T04:20:58;101854.38;;;15.50;100.00
66381;BME280;53177;52.648;1.214;2022-08-11T04:23:55;101856.72;;;15.41;100.00
66381;BME280;53177;52.648;1.214;2022-08-11T04:26:52;101863.25;;;15.45;100.00
66381;BME280;53177;52.648;1.214;2022-08-11T04:32:47;101856.94;;;15.39;100.00
66381;BME280;53177;52.648;1.214;2022-08-11T04:43:38;101839.72;;;15.46;100.00
66381;BME280;53177;52.648;1.214;2022-08-11T04:46:36;101845.25;;;15.34;100.00
66381;BME280;53177;52.648;1.214;2022-08-11T04:56:19;101852.56;;;15.33;100.00
66381;BME280;53177;52.648;1.214;2022-08-11T04:59:25;101846.66;;;15.36;100.00
66381;BME280;53177;52.648;1.214;2022-08-11T05:05:20;101845.88;;;15.41;100.00
66381;BME280;53177;52.648;1.214;2022-08-11T05:11:28;101853.25;;;15.46;100.00
66381;BME280;53177;52.648;1.214;2022-08-11T05:17:08;101842.19;;;15.52;100.00
66381;BME280;53177;52.648;1.214;2022-08-11T05:19:53;101849.56;;;15.57;100.00
66381;BME280;53177;52.648;1.214;2022-08-11T05:22:43;101850.22;;;15.64;100.00
66381;BME280;53177;52.648;1.214;2022-08-11T05:25:32;101851.50;;;15.61;100.00
66381;BME280;53177;52.648;1.214;2022-08-11T05:28:30;101843.72;;;15.65;100.00
66381;BME280;53177;52.648;1.214;2022-08-11T05:31:15;101856.78;;;15.68;100.00
66381;BME280;53177;52.648;1.214;2022-08-11T05:34:10;101856.00;;;15.73;100.00
66381;BME280;53177;52.648;1.214;2022-08-11T05:37:04;101849.53;;;15.74;100.00
66381;BME280;53177;52.648;1.214;2022-08-11T05:39:47;101851.91;;;15.70;100.00
66381;BME280;53177;52.648;1.214;2022-08-11T05:42:33;101848.38;;;15.70;100.00
66381;BME280;53177;52.648;1.214;2022-08-11T05:45:20;101852.50;;;15.72;100.00
66381;BME280;53177;52.648;1.214;2022-08-11T05:48:05;101853.84;;;15.75;100.00
66381;BME280;53177;52.648;1.214;2022-08-11T05:50:51;101849.84;;;15.77;100.00
66381;BME280;53177;52.648;1.214;2022-08-11T05:53:46;101853.44;;;15.88;100.00
66381;BME280;53177;52.648;1.214;2022-08-11T05:56:32;101857.59;;;15.96;100.00
66381;BME280;53177;52.648;1.214;2022-08-11T05:58:58;101853.63;;;16.03;100.00
66381;BME280;53177;52.648;1.214;2022-08-11T06:01:27;101860.41;;;16.06;100.00
66381;BME280;53177;52.648;1.214;2022-08-11T06:03:57;101851.44;;;16.05;100.00
66381;BME280;53177;52.648;1.214;2022-08-11T06:07:01;101856.88;;;16.05;100.00
66381;BME280;53177;52.648;1.214;2022-08-11T06:12:07;101849.63;;;16.16;100.00
66381;BME280;53177;52.648;1.214;2022-08-11T06:14:35;101846.50;;;16.29;100.00
66381;BME280;53177;52.648;1.214;2022-08-11T06:17:05;101851.50;;;16.42;100.00
66381;BME280;53177;52.648;1.214;2022-08-11T06:19:49;101855.34;;;16.52;100.00
66381;BME280;53177;52.648;1.214;2022-08-11T06:22:21;101861.13;;;16.60;100.00
66381;BME280;53177;52.648;1.214;2022-08-11T06:24:54;101867.41;;;16.66;100.00
66381;BME280;53177;52.648;1.214;2022-08-11T06:27:21;101859.81;;;16.68;100.00
66381;BME280;53177;52.648;1.214;2022-08-11T06:29:50;101856.59;;;16.71;100.00
66381;BME280;53177;52.648;1.214;2022-08-11T06:32:17;101856.66;;;16.76;100.00
66381;BME280;53177;52.648;1.214;2022-08-11T06:40:09;101843.22;;;16.97;100.00
66381;BME280;53177;52.648;1.214;2022-08-11T06:42:51;101838.91;;;17.06;100.00
66381;BME280;53177;52.648;1.214;2022-08-11T06:47:53;101838.44;;;17.19;100.00
66381;BME280;53177;52.648;1.214;2022-08-11T06:50:21;101847.97;;;17.32;100.00
66381;BME280;53177;52.648;1.214;2022-08-11T06:53:07;101841.50;;;17.38;100.00
66381;BME280;53177;52.648;1.214;2022-08-11T06:55:41;101843.94;;;17.50;100.00
66381;BME280;53177;52.648;1.214;2022-08-11T06:58:30;101852.69;;;17.62;100.00
66381;BME280;53177;52.648;1.214;2022-08-11T07:01:21;101852.22;;;17.75;100.00
66381;BME280;53177;52.648;1.214;2022-08-11T07:03:57;101848.44;;;17.86;100.00
66381;BME280;53177;52.648;1.214;2022-08-11T07:09:26;101855.78;;;18.11;100.00
66381;BME280;53177;52.648;1.214;2022-08-11T07:15:52;101852.81;;;18.33;100.00
66381;BME280;53177;52.648;1.214;2022-08-11T07:18:25;101855.81;;;18.42;100.00
66381;BME280;53177;52.648;1.214;2022-08-11T07:21:18;101849.00;;;18.50;100.00
66381;BME280;53177;52.648;1.214;2022-08-11T07:24:16;101850.09;;;18.59;100.00
66381;BME280;53177;52.648;1.214;2022-08-11T07:27:03;101862.06;;;18.63;100.00
66381;BME280;53177;52.648;1.214;2022-08-11T07:29:49;101855.53;;;18.69;100.00
66381;BME280;53177;52.648;1.214;2022-08-11T07:32:23;101853.88;;;18.78;100.00
66381;BME280;53177;52.648;1.214;2022-08-11T07:35:08;101850.06;;;18.89;100.00
66381;BME280;53177;52.648;1.214;2022-08-11T07:37:40;101848.66;;;19.02;100.00
66381;BME280;53177;52.648;1.214;2022-08-11T07:40:08;101853.53;;;19.15;100.00
66381;BME280;53177;52.648;1.214;2022-08-11T07:42:34;101849.13;;;19.19;100.00
66381;BME280;53177;52.648;1.214;2022-08-11T07:45:03;101848.28;;;19.29;100.00
66381;BME280;53177;52.648;1.214;2022-08-11T07:47:49;101852.59;;;19.35;100.00
66381;BME280;53177;52.648;1.214;2022-08-11T07:50:34;101855.00;;;19.47;100.00
66381;BME280;53177;52.648;1.214;2022-08-11T07:53:19;101854.44;;;19.60;100.00
66381;BME280;53177;52.648;1.214;2022-08-11T07:55:47;101851.94;;;19.59;100.00
66381;BME280;53177;52.648;1.214;2022-08-11T07:58:15;101858.41;;;19.73;100.00
66381;BME280;53177;52.648;1.214;2022-08-11T08:01:00;101860.06;;;19.74;100.00
66381;BME280;53177;52.648;1.214;2022-08-11T08:03:45;101863.28;;;19.81;100.00
66381;BME280;53177;52.648;1.214;2022-08-11T08:06:31;101858.00;;;20.00;100.00
66381;BME280;53177;52.648;1.214;2022-08-11T08:09:18;101858.16;;;20.14;100.00
66381;BME280;53177;52.648;1.214;2022-08-11T08:12:03;101866.31;;;20.19;100.00
66381;BME280;53177;52.648;1.214;2022-08-11T08:14:51;101868.44;;;20.27;100.00
66381;BME280;53177;52.648;1.214;2022-08-11T08:17:36;101870.47;;;20.45;100.00
66381;BME280;53177;52.648;1.214;2022-08-11T08:20:32;101864.94;;;20.56;100.00
66381;BME280;53177;52.648;1.214;2022-08-11T08:23:00;101866.63;;;20.76;100.00
66381;BME280;53177;52.648;1.214;2022-08-11T08:25:29;101856.19;;;20.83;99.28
66381;BME280;53177;52.648;1.214;2022-08-11T08:27:57;101863.41;;;20.98;97.30
66381;BME280;53177;52.648;1.214;2022-08-11T08:30:27;101859.41;;;21.14;95.58
66381;BME280;53177;52.648;1.214;2022-08-11T08:33:20;101857.34;;;21.25;93.69
66381;BME280;53177;52.648;1.214;2022-08-11T08:35:55;101857.94;;;21.45;94.68
66381;BME280;53177;52.648;1.214;2022-08-11T08:38:48;101857.84;;;21.51;93.99
66381;BME280;53177;52.648;1.214;2022-08-11T08:41:23;101862.53;;;21.69;91.72
66381;BME280;53177;52.648;1.214;2022-08-11T08:43:53;101857.44;;;21.81;90.27
66381;BME280;53177;52.648;1.214;2022-08-11T08:46:27;101854.53;;;21.91;88.19
66381;BME280;53177;52.648;1.214;2022-08-11T08:48:59;101858.53;;;22.18;85.91
66381;BME280;53177;52.648;1.214;2022-08-11T08:51:26;101851.34;;;22.22;84.77
66381;BME280;53177;52.648;1.214;2022-08-11T08:54:23;101855.19;;;22.54;83.33
66381;BME280;53177;52.648;1.214;2022-08-11T08:56:54;101848.63;;;22.68;82.42
66381;BME280;53177;52.648;1.214;2022-08-11T08:59:21;101850.75;;;22.85;79.69
66381;BME280;53177;52.648;1.214;2022-08-11T09:01:59;101851.78;;;23.17;78.88
66381;BME280;53177;52.648;1.214;2022-08-11T09:04:26;101850.97;;;23.30;78.32
66381;BME280;53177;52.648;1.214;2022-08-11T09:06:53;101849.75;;;23.36;78.60
66381;BME280;53177;52.648;1.214;2022-08-11T09:09:20;101843.00;;;23.70;76.58
66381;BME280;53177;52.648;1.214;2022-08-11T09:11:47;101840.31;;;23.79;74.53
66381;BME280;53177;52.648;1.214;2022-08-11T09:14:25;101832.97;;;23.88;73.64
66381;BME280;53177;52.648;1.214;2022-08-11T09:17:13;101842.91;;;23.98;69.27
66381;BME280;53177;52.648;1.214;2022-08-11T09:19:40;101846.28;;;24.17;71.39
66381;BME280;53177;52.648;1.214;2022-08-11T09:22:05;101830.91;;;24.61;71.35
66381;BME280;53177;52.648;1.214;2022-08-11T09:24:50;101833.28;;;24.93;68.00
66381;BME280;53177;52.648;1.214;2022-08-11T09:27:35;101825.00;;;24.85;68.21
66381;BME280;53177;52.648;1.214;2022-08-11T09:30:05;101832.56;;;25.10;65.37
66381;BME280;53177;52.648;1.214;2022-08-11T09:32:31;101832.16;;;25.03;64.20
66381;BME280;53177;52.648;1.214;2022-08-11T09:35:00;101829.13;;;25.05;63.83
66381;BME280;53177;52.648;1.214;2022-08-11T09:37:28;101825.63;;;25.30;62.69
66381;BME280;53177;52.648;1.214;2022-08-11T09:40:14;101822.13;;;25.90;61.66
66381;BME280;53177;52.648;1.214;2022-08-11T09:42:57;101823.69;;;25.39;61.37
66381;BME280;53177;52.648;1.214;2022-08-11T09:45:50;101825.47;;;25.35;61.85
66381;BME280;53177;52.648;1.214;2022-08-11T09:48:24;101815.31;;;25.62;60.20
66381;BME280;53177;52.648;1.214;2022-08-11T09:50:58;101823.25;;;25.72;62.37
66381;BME280;53177;52.648;1.214;2022-08-11T09:53:26;101819.06;;;25.92;63.08
66381;BME280;53177;52.648;1.214;2022-08-11T09:55:53;101824.38;;;26.06;60.12
66381;BME280;53177;52.648;1.214;2022-08-11T09:58:19;101818.88;;;26.06;58.76
66381;BME280;53177;52.648;1.214;2022-08-11T10:00:49;101804.88;;;26.28;60.51
66381;BME280;53177;52.648;1.214;2022-08-11T10:03:21;101817.44;;;26.64;57.51
66381;BME280;53177;52.648;1.214;2022-08-11T10:05:49;101818.41;;;26.68;58.65
66381;BME280;53177;52.648;1.214;2022-08-11T10:08:37;101806.25;;;26.60;56.55
66381;BME280;53177;52.648;1.214;2022-08-11T10:11:04;101808.78;;;26.74;56.51
66381;BME280;53177;52.648;1.214;2022-08-11T10:13:32;101809.88;;;27.20;55.37
66381;BME280;53177;52.648;1.214;2022-08-11T10:16:04;101809.16;;;27.53;53.88
66381;BME280;53177;52.648;1.214;2022-08-11T10:18:40;101806.88;;;28.21;57.47
66381;BME280;53177;52.648;1.214;2022-08-11T10:21:36;101804.84;;;28.18;53.38
66381;BME280;53177;52.648;1.214;2022-08-11T10:24:04;101804.91;;;27.34;50.89
66381;BME280;53177;52.648;1.214;2022-08-11T10:26:49;101806.88;;;28.21;51.92
66381;BME280;53177;52.648;1.214;2022-08-11T10:29:24;101811.22;;;27.77;50.74
66381;BME280;53177;52.648;1.214;2022-08-11T10:32:09;101808.59;;;28.46;48.79
66381;BME280;53177;52.648;1.214;2022-08-11T10:34:54;101802.84;;;27.73;48.51
66381;BME280;53177;52.648;1.214;2022-08-11T10:37:24;101805.09;;;27.92;49.23
66381;BME280;53177;52.648;1.214;2022-08-11T10:39:54;101795.84;;;28.09;49.76
66381;BME280;53177;52.648;1.214;2022-08-11T10:42:20;101796.28;;;28.11;48.62
66381;BME280;53177;52.648;1.214;2022-08-11T10:45:06;101799.88;;;28.24;50.65
66381;BME280;53177;52.648;1.214;2022-08-11T10:47:54;101800.06;;;29.25;47.69
66381;BME280;53177;52.648;1.214;2022-08-11T10:50:21;101802.34;;;28.37;47.93
66381;BME280;53177;52.648;1.214;2022-08-11T10:53:06;101799.75;;;28.20;48.05
66381;BME280;53177;52.648;1.214;2022-08-11T10:55:51;101792.94;;;28.05;47.67
66381;BME280;53177;52.648;1.214;2022-08-11T10:58:36;101791.25;;;28.25;53.70
66381;BME280;53177;52.648;1.214;2022-08-11T11:01:22;101781.75;;;28.47;48.16
66381;BME280;53177;52.648;1.214;2022-08-11T11:04:12;101790.16;;;28.38;47.63
66381;BME280;53177;52.648;1.214;2022-08-11T11:09:44;101781.94;;;28.30;45.61
66381;BME280;53177;52.648;1.214;2022-08-11T11:12:16;101781.19;;;28.66;46.22
66381;BME280;53177;52.648;1.214;2022-08-11T11:15:03;101777.97;;;28.76;45.26
66381;BME280;53177;52.648;1.214;2022-08-11T11:18:02;101777.47;;;29.63;51.52
66381;BME280;53177;52.648;1.214;2022-08-11T11:20:44;101772.44;;;29.81;43.29
66381;BME280;53177;52.648;1.214;2022-08-11T11:26:22;101780.50;;;28.81;45.03
66381;BME280;53177;52.648;1.214;2022-08-11T11:32:41;101769.56;;;28.97;44.92
66381;BME280;53177;52.648;1.214;2022-08-11T11:37:41;101769.09;;;28.95;43.09
66381;BME280;53177;52.648;1.214;2022-08-11T11:40:10;101768.75;;;29.09;42.42
66381;BME280;53177;52.648;1.214;2022-08-11T11:42:38;101764.22;;;30.29;42.00
66381;BME280;53177;52.648;1.214;2022-08-11T11:45:07;101767.97;;;29.77;42.23
66381;BME280;53177;52.648;1.214;2022-08-11T11:47:34;101774.00;;;29.26;41.18
66381;BME280;53177;52.648;1.214;2022-08-11T11:50:02;101764.81;;;29.10;41.27
66381;BME280;53177;52.648;1.214;2022-08-11T11:52:29;101764.38;;;29.76;44.74
66381;BME280;53177;52.648;1.214;2022-08-11T11:54:56;101762.06;;;31.05;41.96
66381;BME280;53177;52.648;1.214;2022-08-11T11:57:23;101755.41;;;31.64;43.58
66381;BME280;53177;52.648;1.214;2022-08-11T12:00:09;101756.50;;;30.69;40.72
66381;BME280;53177;52.648;1.214;2022-08-11T12:02:55;101749.75;;;30.19;39.55
66381;BME280;53177;52.648;1.214;2022-08-11T12:05:23;101753.69;;;29.90;40.38
66381;BME280;53177;52.648;1.214;2022-08-11T12:07:49;101758.22;;;30.74;37.58
66381;BME280;53177;52.648;1.214;2022-08-11T12:10:34;101748.03;;;30.98;43.27
66381;BME280;53177;52.648;1.214;2022-08-11T12:13:00;101735.22;;;30.74;38.67
66381;BME280;53177;52.648;1.214;2022-08-11T12:15:46;101739.47;;;31.61;40.86
66381;BME280;53177;52.648;1.214;2022-08-11T12:18:13;101748.00;;;30.78;36.54
66381;BME280;53177;52.648;1.214;2022-08-11T12:20:41;101744.94;;;30.83;37.57
66381;BME280;53177;52.648;1.214;2022-08-11T12:23:07;101738.56;;;30.16;38.13
66381;BME280;53177;52.648;1.214;2022-08-11T12:25:52;101735.22;;;31.86;37.20
66381;BME280;53177;52.648;1.214;2022-08-11T12:28:50;101734.09;;;32.14;37.10
66381;BME280;53177;52.648;1.214;2022-08-11T12:31:15;101736.13;;;31.32;33.55
66381;BME280;53177;52.648;1.214;2022-08-11T12:33:41;101735.81;;;30.67;35.92
66381;BME280;53177;52.648;1.214;2022-08-11T12:36:09;101735.91;;;31.41;41.51
66381;BME280;53177;52.648;1.214;2022-08-11T12:38:42;101733.84;;;32.45;41.17
66381;BME280;53177;52.648;1.214;2022-08-11T12:41:09;101726.41;;;32.80;39.22
66381;BME280;53177;52.648;1.214;2022-08-11T12:43:53;101725.69;;;31.87;35.81
66381;BME280;53177;52.648;1.214;2022-08-11T12:46:40;101732.78;;;30.88;33.41
66381;BME280;53177;52.648;1.214;2022-08-11T12:49:14;101723.38;;;30.41;34.02
66381;BME280;53177;52.648;1.214;2022-08-11T12:52:04;101726.31;;;31.00;33.95
66381;BME280;53177;52.648;1.214;2022-08-11T13:00:06;101721.63;;;29.89;33.98
66381;BME280;53177;52.648;1.214;2022-08-11T13:02:50;101721.94;;;29.72;34.11
66381;BME280;53177;52.648;1.214;2022-08-11T13:05:35;101717.59;;;30.03;34.31
66381;BME280;53177;52.648;1.214;2022-08-11T13:08:02;101715.13;;;30.45;34.19
66381;BME280;53177;52.648;1.214;2022-08-11T13:10:28;101710.59;;;31.85;38.23
66381;BME280;53177;52.648;1.214;2022-08-11T13:13:16;101711.63;;;32.00;30.76
66381;BME280;53177;52.648;1.214;2022-08-11T13:15:44;101713.81;;;31.09;31.63
66381;BME280;53177;52.648;1.214;2022-08-11T13:18:14;101717.81;;;31.12;38.78
66381;BME280;53177;52.648;1.214;2022-08-11T13:20:40;101715.78;;;31.48;31.09
66381;BME280;53177;52.648;1.214;2022-08-11T13:23:08;101718.16;;;30.56;32.54
66381;BME280;53177;52.648;1.214;2022-08-11T13:25:37;101717.78;;;29.94;32.67
66381;BME280;53177;52.648;1.214;2022-08-11T13:28:03;101714.88;;;30.34;32.72
66381;BME280;53177;52.648;1.214;2022-08-11T13:30:30;101716.50;;;31.83;39.33
66381;BME280;53177;52.648;1.214;2022-08-11T13:33:16;101717.16;;;32.22;35.28
66381;BME280;53177;52.648;1.214;2022-08-11T13:35:45;101723.31;;;32.09;30.26
66381;BME280;53177;52.648;1.214;2022-08-11T13:38:14;101717.19;;;32.00;34.23
66381;BME280;53177;52.648;1.214;2022-08-11T13:40:41;101726.31;;;31.58;30.82
66381;BME280;53177;52.648;1.214;2022-08-11T13:43:07;101707.31;;;31.02;32.36
66381;BME280;53177;52.648;1.214;2022-08-11T13:45:34;101720.91;;;31.26;36.04
66381;BME280;53177;52.648;1.214;2022-08-11T13:48:02;101712.53;;;31.42;31.51
66381;BME280;53177;52.648;1.214;2022-08-11T13:50:31;101706.31;;;31.29;37.57
66381;BME280;53177;52.648;1.214;2022-08-11T13:53:16;101705.44;;;32.10;29.58
66381;BME280;53177;52.648;1.214;2022-08-11T13:55:45;101715.66;;;31.21;32.94
66381;BME280;53177;52.648;1.214;2022-08-11T13:58:12;101699.53;;;31.69;32.24
66381;BME280;53177;52.648;1.214;2022-08-11T14:00:40;101714.13;;;29.90;31.49
66381;BME280;53177;52.648;1.214;2022-08-11T14:03:09;101712.03;;;30.82;31.55
66381;BME280;53177;52.648;1.214;2022-08-11T14:05:41;101704.44;;;30.98;30.34
66381;BME280;53177;52.648;1.214;2022-08-11T14:08:14;101708.94;;;30.36;30.80
66381;BME280;53177;52.648;1.214;2022-08-11T14:10:41;101704.81;;;30.96;30.21
66381;BME280;53177;52.648;1.214;2022-08-11T14:13:09;101715.34;;;31.07;34.42
66381;BME280;53177;52.648;1.214;2022-08-11T14:16:00;101711.34;;;31.04;36.16
66381;BME280;53177;52.648;1.214;2022-08-11T14:18:30;101700.47;;;31.54;29.47
66381;BME280;53177;52.648;1.214;2022-08-11T14:20:58;101702.88;;;31.98;34.33
66381;BME280;53177;52.648;1.214;2022-08-11T14:23:49;101704.53;;;32.02;26.85
66381;BME280;53177;52.648;1.214;2022-08-11T14:26:16;101712.13;;;31.05;28.04
66381;BME280;53177;52.648;1.214;2022-08-11T14:28:59;101707.28;;;30.82;30.39
66381;BME280;53177;52.648;1.214;2022-08-11T14:31:28;101699.22;;;30.26;29.49
66381;BME280;53177;52.648;1.214;2022-08-11T14:33:56;101693.25;;;30.75;28.78
66381;BME280;53177;52.648;1.214;2022-08-11T14:36:23;101696.03;;;30.24;29.13
66381;BME280;53177;52.648;1.214;2022-08-11T14:38:53;101696.03;;;29.64;29.92
66381;BME280;53177;52.648;1.214;2022-08-11T14:41:19;101691.25;;;30.09;38.23
66381;BME280;53177;52.648;1.214;2022-08-11T14:44:05;101684.66;;;30.80;30.14
66381;BME280;53177;52.648;1.214;2022-08-11T14:46:51;101690.28;;;30.17;31.79
66381;BME280;53177;52.648;1.214;2022-08-11T14:49:33;101691.84;;;31.01;32.91
66381;BME280;53177;52.648;1.214;2022-08-11T14:52:00;101689.97;;;30.54;28.26
66381;BME280;53177;52.648;1.214;2022-08-11T14:54:29;101681.53;;;30.15;29.44
66381;BME280;53177;52.648;1.214;2022-08-11T14:57:16;101683.59;;;30.69;31.47
66381;BME280;53177;52.648;1.214;2022-08-11T14:59:42;101688.56;;;30.12;28.91
66381;BME280;53177;52.648;1.214;2022-08-11T15:02:10;101684.03;;;30.20;41.63
66381;BME280;53177;52.648;1.214;2022-08-11T15:04:54;101693.84;;;30.17;28.96
66381;BME280;53177;52.648;1.214;2022-08-11T15:07:22;101687.78;;;29.96;29.18
66381;BME280;53177;52.648;1.214;2022-08-11T15:09:58;101686.25;;;29.99;29.63
66381;BME280;53177;52.648;1.214;2022-08-11T15:12:24;101691.97;;;29.74;30.63
66381;BME280;53177;52.648;1.214;2022-08-11T15:14:50;101680.44;;;30.04;30.92
66381;BME280;53177;52.648;1.214;2022-08-11T15:17:35;101679.38;;;30.24;29.66
66381;BME280;53177;52.648;1.214;2022-08-11T15:20:08;101684.53;;;31.12;31.35
66381;BME280;53177;52.648;1.214;2022-08-11T15:22:54;101676.41;;;29.85;29.41
66381;BME280;53177;52.648;1.214;2022-08-11T15:25:39;101672.97;;;29.32;30.53
66381;BME280;53177;52.648;1.214;2022-08-11T15:28:05;101677.94;;;30.30;35.24
66381;BME280;53177;52.648;1.214;2022-08-11T15:30:54;101676.34;;;30.80;31.14
66381;BME280;53177;52.648;1.214;2022-08-11T15:33:40;101672.47;;;29.86;29.51
66381;BME280;53177;52.648;1.214;2022-08-11T15:36:29;101670.78;;;29.98;29.87
66381;BME280;53177;52.648;1.214;2022-08-11T15:39:27;101670.31;;;30.59;29.29
66381;BME280;53177;52.648;1.214;2022-08-11T15:44:47;101666.50;;;29.84;32.70
66381;BME280;53177;52.648;1.214;2022-08-11T15:47:37;101663.47;;;29.89;30.39
66381;BME280;53177;52.648;1.214;2022-08-11T15:50:05;101660.19;;;30.15;30.30
66381;BME280;53177;52.648;1.214;2022-08-11T15:52:34;101650.06;;;29.04;30.95
66381;BME280;53177;52.648;1.214;2022-08-11T15:55:05;101649.53;;;29.42;34.04
66381;BME280;53177;52.648;1.214;2022-08-11T15:57:32;101654.50;;;29.64;31.92
66381;BME280;53177;52.648;1.214;2022-08-11T16:00:30;101648.63;;;29.66;30.60
66381;BME280;53177;52.648;1.214;2022-08-11T16:03:17;101649.94;;;29.00;31.80
66381;BME280;53177;52.648;1.214;2022-08-11T16:06:02;101650.31;;;28.86;32.16
66381;BME280;53177;52.648;1.214;2022-08-11T16:08:28;101647.84;;;29.09;32.80
66381;BME280;53177;52.648;1.214;2022-08-11T16:10:55;101656.53;;;29.52;35.26
66381;BME280;53177;52.648;1.214;2022-08-11T16:13:22;101648.28;;;29.39;30.86
66381;BME280;53177;52.648;1.214;2022-08-11T16:15:52;101643.88;;;29.23;31.48
66381;BME280;53177;52.648;1.214;2022-08-11T16:18:43;101650.47;;;28.65;32.14
66381;BME280;53177;52.648;1.214;2022-08-11T16:21:25;101638.06;;;28.23;32.37
66381;BME280;53177;52.648;1.214;2022-08-11T16:23:54;101635.34;;;29.43;31.58
66381;BME280;53177;52.648;1.214;2022-08-11T16:26:23;101640.94;;;28.63;32.12
66381;BME280;53177;52.648;1.214;2022-08-11T16:28:51;101640.88;;;29.15;36.05
66381;BME280;53177;52.648;1.214;2022-08-11T16:31:18;101631.19;;;28.81;31.47
66381;BME280;53177;52.648;1.214;2022-08-11T16:33:46;101628.72;;;29.32;33.26
66381;BME280;53177;52.648;1.214;2022-08-11T16:36:13;101628.50;;;28.97;31.11
66381;BME280;53177;52.648;1.214;2022-08-11T16:38:58;101634.63;;;28.90;31.54
66381;BME280;53177;52.648;1.214;2022-08-11T16:41:28;101619.91;;;29.42;33.49